Time;durP1;ratioP1;P1;durP2;ratioP2;P2;SDS_P1;SDS_P2;PMS_P1;PMS_P2;Temp;Humidity;BMP_temperature;BMP_pressure;BME280_temperature;BME280_humidity;BME280_pressure;Samples;Min_cycle;Max_cycle;Signal;HPM_P1;HPM_P2
2020/12/14 00:01:09;;;;;;;5.97;3.33;;;12.80;99.90;;;;;;5043595;28;20100;-52
2020/12/14 00:03:37;;;;;;;7.50;3.35;;;12.80;99.90;;;;;;5036214;28;20045;-54
2020/12/14 00:06:04;;;;;;;4.88;3.10;;;12.90;99.90;;;;;;5038553;28;20038;-55
2020/12/14 00:08:32;;;;;;;7.53;3.78;;;12.80;99.90;;;;;;5027412;28;20381;-53
2020/12/14 00:10:59;;;;;;;7.18;3.05;;;12.80;99.90;;;;;;5036918;28;20045;-50
2020/12/14 00:13:28;;;;;;;7.60;4.35;;;12.80;99.90;;;;;;5037698;28;20529;-54
2020/12/14 00:15:57;;;;;;;7.05;3.22;;;12.90;99.90;;;;;;5041494;28;20053;-54
2020/12/14 00:18:24;;;;;;;6.80;2.92;;;12.80;99.90;;;;;;5035249;28;20128;-52
2020/12/14 00:20:52;;;;;;;6.22;3.72;;;12.80;99.90;;;;;;5022611;28;20080;-52
2020/12/14 00:23:19;;;;;;;7.32;4.55;;;12.80;99.90;;;;;;5043180;28;20539;-49
2020/12/14 00:25:48;;;;;;;7.15;3.65;;;12.80;99.90;;;;;;5045565;28;20049;-53
2020/12/14 00:28:20;;;;;;;7.53;3.75;;;12.80;99.90;;;;;;5032761;28;20049;-54
2020/12/14 00:30:47;;;;;;;6.43;3.83;;;12.80;99.90;;;;;;5049780;28;20407;-49
2020/12/14 00:33:20;;;;;;;8.02;3.88;;;12.80;99.90;;;;;;5042160;28;20058;-51
2020/12/14 00:35:47;;;;;;;7.93;3.58;;;12.80;99.90;;;;;;5037885;28;20057;-51
2020/12/14 00:38:15;;;;;;;5.55;3.58;;;12.80;99.90;;;;;;5046616;28;20052;-54
2020/12/14 00:40:42;;;;;;;7.68;3.75;;;12.70;99.90;;;;;;5045802;28;20052;-55
2020/12/14 00:43:09;;;;;;;6.65;4.00;;;12.70;99.90;;;;;;5014356;28;20041;-51
2020/12/14 00:45:37;;;;;;;6.65;3.60;;;12.70;99.90;;;;;;5032307;28;20129;-52
2020/12/14 00:48:04;;;;;;;8.82;4.30;;;12.70;99.90;;;;;;5030464;28;20047;-54
2020/12/14 00:50:34;;;;;;;8.95;4.35;;;12.70;99.90;;;;;;5049091;28;20557;-54
2020/12/14 00:53:01;;;;;;;11.20;3.45;;;12.70;99.90;;;;;;5044034;28;20044;-52
2020/12/14 00:55:29;;;;;;;8.38;4.30;;;12.70;99.90;;;;;;5024629;28;20041;-53
2020/12/14 00:57:56;;;;;;;7.18;3.85;;;12.70;99.90;;;;;;5045557;28;20040;-53
2020/12/14 01:00:24;;;;;;;4.95;3.60;;;12.70;99.90;;;;;;5051456;28;20545;-51
2020/12/14 01:02:51;;;;;;;8.95;4.55;;;12.70;99.90;;;;;;5045724;28;20055;-49
2020/12/14 01:05:21;;;;;;;7.75;4.03;;;12.70;99.90;;;;;;5050991;28;20049;-55
2020/12/14 01:07:50;;;;;;;5.65;3.33;;;12.60;99.90;;;;;;5029074;28;20152;-52
2020/12/14 01:10:17;;;;;;;10.05;3.95;;;12.70;99.90;;;;;;5041951;28;20052;-50
2020/12/14 01:12:45;;;;;;;14.10;4.05;;;12.70;99.90;;;;;;5013971;28;20049;-54
2020/12/14 01:15:13;;;;;;;6.78;4.30;;;12.70;99.90;;;;;;5021155;28;20080;-50
2020/12/14 01:17:41;;;;;;;5.45;3.00;;;12.80;99.90;;;;;;5031323;28;20491;-51
2020/12/14 01:20:08;;;;;;;7.60;4.57;;;12.80;99.90;;;;;;5037166;28;20184;-54
2020/12/14 01:22:37;;;;;;;6.63;4.68;;;12.80;99.90;;;;;;5043248;28;20049;-53
2020/12/14 01:25:04;;;;;;;7.40;3.10;;;12.80;99.90;;;;;;5035935;28;20049;-55
2020/12/14 01:27:33;;;;;;;9.10;3.78;;;12.80;99.90;;;;;;5042931;28;20400;-56
2020/12/14 01:30:00;;;;;;;5.95;3.20;;;12.80;99.90;;;;;;5044702;28;20060;-54
2020/12/14 01:32:28;;;;;;;6.57;4.10;;;12.80;99.90;;;;;;5010369;28;20055;-50
2020/12/14 01:34:55;;;;;;;6.03;4.18;;;12.80;99.90;;;;;;5051971;28;20435;-53
2020/12/14 01:37:24;;;;;;;8.15;4.00;;;12.80;99.90;;;;;;5043843;28;20059;-53
2020/12/14 01:39:53;;;;;;;6.65;4.40;;;12.80;99.90;;;;;;5034329;28;20397;-50
2020/12/14 01:42:22;;;;;;;5.90;4.32;;;12.80;99.90;;;;;;5028029;28;20491;-52
2020/12/14 01:44:50;;;;;;;10.80;4.03;;;12.80;99.90;;;;;;5035810;28;20046;-52
2020/12/14 01:47:38;;;;;;;10.70;4.57;;;12.70;99.90;;;;;;5043840;28;20494;-53
2020/12/14 01:50:11;;;;;;;6.28;3.90;;;12.70;99.90;;;;;;5050205;28;20045;-54
2020/12/14 01:52:44;;;;;;;8.43;4.32;;;12.80;99.90;;;;;;5030185;28;20111;-50
2020/12/14 01:55:18;;;;;;;7.30;3.60;;;12.70;99.90;;;;;;5036586;28;20041;-49
2020/12/14 01:57:45;;;;;;;7.28;3.60;;;12.70;99.90;;;;;;5010647;28;20042;-53
2020/12/14 02:00:16;;;;;;;5.93;4.10;;;12.70;99.90;;;;;;5037225;28;20045;-52
2020/12/14 02:02:44;;;;;;;6.72;4.15;;;12.70;99.90;;;;;;5042420;28;20127;-53
2020/12/14 02:05:13;;;;;;;6.00;2.88;;;12.70;99.90;;;;;;5036173;28;20464;-50
2020/12/14 02:07:40;;;;;;;5.55;3.60;;;12.70;99.90;;;;;;5042385;28;20056;-51
2020/12/14 02:10:08;;;;;;;9.05;3.67;;;12.70;99.90;;;;;;5003007;28;20037;-54
2020/12/14 02:12:35;;;;;;;6.25;4.05;;;12.80;99.90;;;;;;5044682;28;20167;-50
2020/12/14 02:15:04;;;;;;;7.03;3.40;;;12.80;99.90;;;;;;5018177;28;20037;-54
2020/12/14 02:17:32;;;;;;;5.00;2.97;;;12.80;99.90;;;;;;5032567;28;20072;-55
2020/12/14 02:20:00;;;;;;;6.90;2.75;;;12.80;99.90;;;;;;5051533;28;20052;-52
2020/12/14 02:22:27;;;;;;;8.80;3.30;;;12.70;99.90;;;;;;5042262;28;20045;-50
2020/12/14 02:25:08;;;;;;;6.88;3.33;;;12.70;99.90;;;;;;5034372;28;20061;-55
2020/12/14 02:27:37;;;;;;;5.63;3.53;;;12.70;99.90;;;;;;5026145;28;20404;-53
2020/12/14 02:30:06;;;;;;;7.28;3.17;;;12.70;99.90;;;;;;5029345;28;20083;-51
2020/12/14 02:32:34;;;;;;;6.00;3.60;;;12.80;99.90;;;;;;5045299;28;20470;-54
2020/12/14 02:35:02;;;;;;;5.28;3.35;;;12.80;99.90;;;;;;5034770;28;20479;-52
2020/12/14 02:37:32;;;;;;;7.10;2.88;;;12.80;99.90;;;;;;5041129;28;20554;-48
2020/12/14 02:39:59;;;;;;;5.32;3.53;;;12.80;99.90;;;;;;5034429;28;20491;-51
2020/12/14 02:42:27;;;;;;;5.45;2.95;;;12.80;99.90;;;;;;5024239;28;20054;-55
2020/12/14 02:44:56;;;;;;;5.30;2.85;;;12.80;99.90;;;;;;5033555;28;20217;-54
2020/12/14 02:47:24;;;;;;;5.53;3.00;;;12.70;99.90;;;;;;5023795;28;20046;-56
2020/12/14 02:49:54;;;;;;;6.97;3.63;;;12.80;99.90;;;;;;5017663;28;20044;-53
2020/12/14 02:52:21;;;;;;;8.10;3.10;;;12.70;99.90;;;;;;5023994;28;20054;-55
2020/12/14 02:54:48;;;;;;;3.95;2.50;;;12.70;99.90;;;;;;5033032;28;20053;-52
2020/12/14 02:57:16;;;;;;;5.40;3.00;;;12.70;99.90;;;;;;5041995;28;20052;-54
2020/12/14 02:59:44;;;;;;;5.93;3.03;;;12.70;99.90;;;;;;5050800;28;20088;-53
2020/12/14 03:02:12;;;;;;;5.72;3.70;;;12.70;99.90;;;;;;5027215;28;20049;-53
2020/12/14 03:04:39;;;;;;;5.80;3.03;;;12.70;99.90;;;;;;5016303;28;20049;-52
2020/12/14 03:07:07;;;;;;;6.65;3.28;;;12.70;99.90;;;;;;5044983;28;20077;-52
2020/12/14 03:09:34;;;;;;;4.68;3.10;;;12.70;99.90;;;;;;5032719;28;20128;-56
2020/12/14 03:12:02;;;;;;;6.07;3.42;;;12.70;99.90;;;;;;5043281;28;20490;-56
2020/12/14 03:14:33;;;;;;;5.82;3.25;;;12.60;99.90;;;;;;5032727;28;20068;-50
2020/12/14 03:17:03;;;;;;;5.55;3.17;;;12.70;99.90;;;;;;5043893;28;20053;-60
2020/12/14 03:19:30;;;;;;;5.35;3.45;;;12.60;99.90;;;;;;5032714;28;20057;-55
2020/12/14 03:21:59;;;;;;;4.60;2.85;;;12.60;99.90;;;;;;5044422;28;20388;-48
2020/12/14 03:24:26;;;;;;;7.57;3.55;;;12.60;99.90;;;;;;5031983;28;20065;-51
2020/12/14 03:26:57;;;;;;;4.82;3.08;;;12.50;99.90;;;;;;5044371;28;20068;-51
2020/12/14 03:29:28;;;;;;;4.88;2.95;;;12.50;99.90;;;;;;5032601;28;20041;-56
2020/12/14 03:31:55;;;;;;;8.88;3.78;;;12.50;99.90;;;;;;5043109;28;20144;-52
2020/12/14 03:34:22;;;;;;;5.35;3.33;;;12.50;99.90;;;;;;5033257;28;20119;-53
2020/12/14 03:36:52;;;;;;;8.10;3.83;;;12.50;99.90;;;;;;5042901;28;20048;-55
2020/12/14 03:39:20;;;;;;;6.07;3.65;;;12.40;99.90;;;;;;5015757;28;20052;-53
2020/12/14 03:41:50;;;;;;;5.28;3.05;;;12.40;99.90;;;;;;5043031;28;20045;-51
2020/12/14 03:44:17;;;;;;;5.20;3.28;;;12.40;99.90;;;;;;5016109;28;20038;-51
2020/12/14 03:46:44;;;;;;;7.97;4.05;;;12.40;99.90;;;;;;5044421;28;20134;-54
2020/12/14 03:49:12;;;;;;;7.22;3.70;;;12.40;99.90;;;;;;5014879;28;20550;-49
2020/12/14 03:51:44;;;;;;;6.88;3.45;;;12.40;99.90;;;;;;5042504;28;20048;-53
2020/12/14 03:54:21;;;;;;;9.07;3.60;;;12.40;99.90;;;;;;5032866;28;20107;-55
2020/12/14 03:56:49;;;;;;;6.13;3.30;;;12.40;99.90;;;;;;5010445;28;20044;-54
2020/12/14 03:59:19;;;;;;;4.85;3.00;;;12.30;99.90;;;;;;5015885;28;20088;-56
2020/12/14 04:01:46;;;;;;;6.00;3.38;;;12.30;99.90;;;;;;5013572;28;20139;-55
2020/12/14 04:04:16;;;;;;;7.85;3.38;;;12.30;99.90;;;;;;5052123;28;20081;-55
2020/12/14 04:06:44;;;;;;;5.75;3.30;;;12.30;99.90;;;;;;5045039;28;20068;-55
2020/12/14 04:09:11;;;;;;;7.70;3.17;;;12.30;99.90;;;;;;5015919;28;20468;-55
2020/12/14 04:11:38;;;;;;;6.28;4.32;;;12.30;99.90;;;;;;5043215;28;20045;-56
2020/12/14 04:14:05;;;;;;;6.32;3.55;;;12.30;99.90;;;;;;5047938;28;20132;-54
2020/12/14 04:16:32;;;;;;;6.10;3.08;;;12.30;99.90;;;;;;5042660;28;20076;-55
2020/12/14 04:19:00;;;;;;;4.57;3.33;;;12.30;99.90;;;;;;5032459;28;20045;-54
2020/12/14 04:21:27;;;;;;;8.20;3.35;;;12.20;99.90;;;;;;5021078;28;20057;-50
2020/12/14 04:23:55;;;;;;;6.50;3.30;;;12.20;99.90;;;;;;5032719;28;20044;-54
2020/12/14 04:26:22;;;;;;;5.55;3.58;;;12.20;99.90;;;;;;5046184;28;20132;-53
2020/12/14 04:28:49;;;;;;;6.32;3.90;;;12.20;99.90;;;;;;5035346;28;20080;-53
2020/12/14 04:31:16;;;;;;;7.38;4.25;;;12.20;99.90;;;;;;5039203;28;20054;-52
2020/12/14 04:33:44;;;;;;;6.72;4.50;;;12.20;99.90;;;;;;5034553;28;20057;-52
2020/12/14 04:36:14;;;;;;;7.00;3.63;;;12.20;99.90;;;;;;5037864;28;20484;-50
2020/12/14 04:38:44;;;;;;;7.18;4.38;;;12.20;99.90;;;;;;5035143;28;20410;-53
2020/12/14 04:41:14;;;;;;;7.13;3.78;;;12.20;99.90;;;;;;5009223;28;20053;-52
2020/12/14 04:43:42;;;;;;;7.05;3.67;;;12.10;99.90;;;;;;5044350;28;20053;-53
2020/12/14 04:46:10;;;;;;;7.70;3.33;;;12.10;99.90;;;;;;5038139;28;20052;-49
2020/12/14 04:48:41;;;;;;;4.78;3.33;;;12.10;99.90;;;;;;5035084;28;20141;-52
2020/12/14 04:51:09;;;;;;;6.05;3.30;;;12.20;99.90;;;;;;5018371;28;20045;-51
2020/12/14 04:53:42;;;;;;;5.65;3.70;;;12.20;99.90;;;;;;5043687;28;20056;-52
2020/12/14 04:56:10;;;;;;;6.25;3.45;;;12.20;99.90;;;;;;5039354;28;20056;-52
2020/12/14 04:58:39;;;;;;;6.40;3.60;;;12.20;99.90;;;;;;5019503;28;20080;-50
2020/12/14 05:01:06;;;;;;;7.45;3.42;;;12.20;99.90;;;;;;5040072;28;20506;-56
2020/12/14 05:03:34;;;;;;;5.60;3.30;;;12.20;99.90;;;;;;5040195;28;20107;-54
2020/12/14 05:06:01;;;;;;;8.00;4.10;;;12.20;99.90;;;;;;5044015;28;20037;-51
2020/12/14 05:08:29;;;;;;;6.22;2.97;;;12.20;99.90;;;;;;5028581;28;20518;-51
2020/12/14 05:10:57;;;;;;;7.18;4.20;;;12.20;99.90;;;;;;5043131;28;20527;-53
2020/12/14 05:13:28;;;;;;;6.47;3.22;;;12.20;99.90;;;;;;5042442;28;20105;-51
2020/12/14 05:15:56;;;;;;;7.82;3.53;;;12.20;99.90;;;;;;5040163;28;20061;-55
2020/12/14 05:18:24;;;;;;;5.18;3.35;;;12.20;99.90;;;;;;5034664;28;20047;-51
2020/12/14 05:21:02;;;;;;;5.45;2.95;;;12.20;99.90;;;;;;5031159;28;20418;-49
2020/12/14 05:23:31;;;;;;;9.63;3.53;;;12.20;99.90;;;;;;5038961;28;20051;-49
2020/12/14 05:26:09;;;;;;;6.32;2.97;;;12.30;99.90;;;;;;5048556;28;20064;-50
2020/12/14 05:28:36;;;;;;;8.20;3.83;;;12.30;99.90;;;;;;5044680;28;20049;-57
2020/12/14 05:31:04;;;;;;;8.45;4.10;;;12.20;99.90;;;;;;5046487;28;20514;-53
2020/12/14 05:33:32;;;;;;;7.75;3.40;;;12.30;99.90;;;;;;5039383;28;20420;-53
2020/12/14 05:35:59;;;;;;;6.13;3.92;;;12.30;99.90;;;;;;5023538;28;20044;-53
2020/12/14 05:38:31;;;;;;;6.05;3.35;;;12.20;99.90;;;;;;5039892;28;20384;-52
2020/12/14 05:41:02;;;;;;;8.23;4.25;;;12.30;99.90;;;;;;5039346;28;20052;-53
2020/12/14 05:43:32;;;;;;;7.97;3.83;;;12.20;99.90;;;;;;5006798;28;20060;-54
2020/12/14 05:46:19;;;;;;;14.40;3.83;;;12.20;99.90;;;;;;5040427;28;20045;-55
2020/12/14 05:48:50;;;;;;;9.57;3.65;;;12.30;99.90;;;;;;5036778;28;20135;-51
2020/12/14 05:51:17;;;;;;;9.77;5.03;;;12.20;99.90;;;;;;5025319;28;20085;-54
2020/12/14 05:53:53;;;;;;;8.23;5.60;;;12.20;99.90;;;;;;5038143;28;20069;-50
2020/12/14 05:56:25;;;;;;;6.38;3.60;;;12.20;99.90;;;;;;5043295;28;20049;-50
2020/12/14 05:59:02;;;;;;;6.88;4.93;;;12.20;99.90;;;;;;5036022;28;20455;-50
2020/12/14 06:01:29;;;;;;;7.22;4.10;;;12.20;99.90;;;;;;5044542;28;20052;-53
2020/12/14 06:03:58;;;;;;;6.45;3.88;;;12.30;99.90;;;;;;5034675;28;20050;-53
2020/12/14 06:06:30;;;;;;;6.95;3.80;;;12.20;99.90;;;;;;5042737;28;20049;-54
2020/12/14 06:09:03;;;;;;;8.80;4.13;;;12.30;99.90;;;;;;5035217;28;20403;-51
2020/12/14 06:11:35;;;;;;;5.30;2.92;;;12.30;99.90;;;;;;5043012;28;20136;-52
2020/12/14 06:14:02;;;;;;;7.50;3.13;;;12.30;99.90;;;;;;5034327;28;20499;-51
2020/12/14 06:16:32;;;;;;;5.65;3.47;;;12.30;99.90;;;;;;5042984;28;20053;-50
2020/12/14 06:18:59;;;;;;;6.55;3.53;;;12.30;99.90;;;;;;5033630;28;20052;-52
2020/12/14 06:21:29;;;;;;;6.35;3.47;;;12.40;99.90;;;;;;5042627;28;20057;-51
2020/12/14 06:23:59;;;;;;;10.63;3.60;;;12.50;99.90;;;;;;5018356;28;20490;-50
2020/12/14 06:26:30;;;;;;;4.57;2.97;;;12.70;99.90;;;;;;5042741;28;20414;-52
2020/12/14 06:29:00;;;;;;;6.80;3.92;;;12.70;99.90;;;;;;5034360;28;20053;-54
2020/12/14 06:31:39;;;;;;;5.28;3.53;;;12.70;99.90;;;;;;5042800;28;20060;-50
2020/12/14 06:34:31;;;;;;;7.45;3.72;;;12.70;99.90;;;;;;5034531;28;20057;-50
2020/12/14 06:37:00;;;;;;;6.32;2.95;;;12.70;99.90;;;;;;5045464;28;20055;-50
2020/12/14 06:39:37;;;;;;;6.90;3.33;;;12.70;99.90;;;;;;5033216;28;20069;-49
2020/12/14 06:42:08;;;;;;;5.00;3.13;;;12.70;99.90;;;;;;5035931;28;20490;-50
2020/12/14 06:45:01;;;;;;;6.85;3.13;;;12.70;99.90;;;;;;5054126;28;20551;-53
2020/12/14 06:47:49;;;;;;;6.95;3.75;;;12.70;99.90;;;;;;5041610;28;20049;-50
2020/12/14 06:50:32;;;;;;;5.00;3.58;;;12.70;99.90;;;;;;5035234;28;20061;-54
2020/12/14 06:53:01;;;;;;;8.10;3.97;;;12.80;99.90;;;;;;5032061;28;20065;-53
2020/12/14 06:55:43;;;;;;;8.48;4.28;;;13.10;99.60;;;;;;5036651;28;20052;-52
2020/12/14 06:58:28;;;;;;;6.75;3.80;;;13.60;98.70;;;;;;5046538;28;20136;-55
2020/12/14 07:00:57;;;;;;;6.43;3.17;;;14.10;97.70;;;;;;5047012;28;20052;-53
2020/12/14 07:03:31;;;;;;;5.15;3.42;;;15.30;96.00;;;;;;5047751;28;20154;-49
2020/12/14 07:06:01;;;;;;;4.65;3.13;;;17.00;93.70;;;;;;5045790;28;20143;-54
2020/12/14 07:08:41;;;;;;;5.47;3.50;;;18.70;91.00;;;;;;5014860;28;20041;-51
2020/12/14 07:11:13;;;;;;;6.47;2.88;;;20.10;85.30;;;;;;5044516;28;20053;-52
2020/12/14 07:13:45;;;;;;;7.70;3.53;;;21.00;80.00;;;;;;5016948;28;20049;-51
2020/12/14 07:16:17;;;;;;;4.63;2.55;;;21.90;76.00;;;;;;5026477;28;20103;-51
2020/12/14 07:18:46;;;;;;;5.97;2.97;;;22.60;72.40;;;;;;5045584;28;20096;-55
2020/12/14 07:21:17;;;;;;;5.82;2.80;;;23.10;69.60;;;;;;5040943;28;20072;-51
2020/12/14 07:23:47;;;;;;;5.03;2.50;;;23.70;67.00;;;;;;5034311;28;20053;-53
2020/12/14 07:26:16;;;;;;;6.40;2.53;;;24.30;64.80;;;;;;5039561;28;20490;-50
2020/12/14 07:28:51;;;;;;;4.25;2.75;;;24.70;63.00;;;;;;5037599;28;20041;-52
2020/12/14 07:31:21;;;;;;;4.53;2.20;;;24.90;61.60;;;;;;5024636;28;20044;-54
2020/12/14 07:33:49;;;;;;;4.63;2.40;;;25.20;60.40;;;;;;5036513;28;20034;-52
2020/12/14 07:36:20;;;;;;;5.07;2.85;;;25.60;59.60;;;;;;5035939;28;20041;-51
2020/12/14 07:38:55;;;;;;;3.78;2.63;;;25.70;59.00;;;;;;5039959;28;20041;-53
2020/12/14 07:41:24;;;;;;;7.50;3.13;;;25.50;58.40;;;;;;5038913;28;20558;-54
2020/12/14 07:43:55;;;;;;;5.03;3.22;;;24.90;58.20;;;;;;5033914;28;20046;-54
2020/12/14 07:46:33;;;;;;;4.50;2.30;;;24.60;58.80;;;;;;5024272;28;20049;-50
2020/12/14 07:49:05;;;;;;;5.00;3.25;;;24.50;59.00;;;;;;5033024;28;20124;-52
2020/12/14 07:51:36;;;;;;;7.07;2.33;;;24.10;59.40;;;;;;5021078;28;20454;-54
2020/12/14 07:54:05;;;;;;;3.78;2.33;;;23.50;60.30;;;;;;5051453;28;20061;-54
2020/12/14 07:57:07;;;;;;;6.65;2.42;;;23.20;61.50;;;;;;5024309;28;20054;-52
2020/12/14 07:59:37;;;;;;;4.13;2.33;;;22.80;61.90;;;;;;5031644;28;20092;-60
2020/12/14 08:02:09;;;;;;;3.88;2.35;;;22.40;62.40;;;;;;5023791;28;20053;-53
2020/12/14 08:04:41;;;;;;;3.25;2.33;;;22.10;63.40;;;;;;5050978;28;20410;-54
2020/12/14 08:07:10;;;;;;;4.82;2.50;;;21.90;64.00;;;;;;5042852;28;20058;-55
2020/12/14 08:09:45;;;;;;;6.93;2.90;;;21.70;64.60;;;;;;5031554;28;20068;-52
2020/12/14 08:12:14;;;;;;;5.53;3.13;;;21.60;64.80;;;;;;5023226;28;20077;-54
2020/12/14 08:14:46;;;;;;;5.22;2.40;;;21.50;64.90;;;;;;5031991;28;20056;-55
2020/12/14 08:17:14;;;;;;;3.97;2.65;;;21.50;65.20;;;;;;5042674;28;20060;-53
2020/12/14 08:19:44;;;;;;;5.22;2.83;;;21.40;64.80;;;;;;5050694;28;20049;-53
2020/12/14 08:22:12;;;;;;;3.92;2.65;;;21.40;65.50;;;;;;5058975;28;20084;-54
2020/12/14 08:24:44;;;;;;;5.63;2.60;;;21.40;66.20;;;;;;5031451;28;20088;-53
2020/12/14 08:27:13;;;;;;;7.70;3.47;;;21.10;66.00;;;;;;5042271;28;20053;-50
2020/12/14 08:30:05;;;;;;;3.97;2.60;;;20.60;65.60;;;;;;5031411;28;20464;-53
2020/12/14 08:32:33;;;;;;;3.70;2.22;;;20.20;66.50;;;;;;5040209;28;20136;-54
2020/12/14 08:35:26;;;;;;;3.60;2.30;;;19.90;67.60;;;;;;5017005;28;20387;-52
2020/12/14 08:38:05;;;;;;;5.63;2.63;;;19.60;68.40;;;;;;5027899;28;20045;-53
2020/12/14 08:40:34;;;;;;;3.65;2.65;;;19.30;69.80;;;;;;5039555;28;20045;-53
2020/12/14 08:43:15;;;;;;;6.18;3.33;;;19.10;70.80;;;;;;5036718;28;20045;-51
2020/12/14 08:46:03;;;;;;;3.67;2.00;;;18.80;70.80;;;;;;5035764;28;20394;-51
2020/12/14 08:48:59;;;;;;;4.47;2.42;;;18.50;72.40;;;;;;5019189;28;20480;-53
2020/12/14 08:51:34;;;;;;;4.82;2.65;;;18.40;73.10;;;;;;5040159;28;20061;-54
2020/12/14 08:54:20;;;;;;;9.00;3.45;;;18.50;73.80;;;;;;5017585;28;20041;-52
2020/12/14 08:56:49;;;;;;;5.70;2.60;;;18.60;74.30;;;;;;5041186;28;20057;-49
2020/12/14 08:59:21;;;;;;;6.25;2.58;;;18.60;74.10;;;;;;5054951;28;20057;-54
2020/12/14 09:01:56;;;;;;;4.15;2.63;;;18.50;74.30;;;;;;5041794;28;20041;-49
2020/12/14 09:04:29;;;;;;;5.82;3.03;;;18.40;75.30;;;;;;5054759;28;20461;-55
2020/12/14 09:06:57;;;;;;;5.65;2.67;;;18.40;75.90;;;;;;5042256;28;20606;-49
2020/12/14 09:09:38;;;;;;;6.45;3.55;;;18.40;76.20;;;;;;5054577;28;20084;-49
2020/12/14 09:12:12;;;;;;;4.18;2.78;;;18.50;76.30;;;;;;5045950;28;20463;-50
2020/12/14 09:14:43;;;;;;;3.38;2.15;;;18.40;77.10;;;;;;5020132;28;20514;-51
2020/12/14 09:17:18;;;;;;;6.85;2.80;;;18.20;78.20;;;;;;5047853;28;20053;-53
2020/12/14 09:19:51;;;;;;;8.77;4.25;;;18.30;78.70;;;;;;5063486;28;20607;-53
2020/12/14 09:22:28;;;;;;;8.18;3.28;;;18.10;79.20;;;;;;5051939;28;20499;-50
2020/12/14 09:24:56;;;;;;;11.70;3.83;;;17.90;80.40;;;;;;5053320;28;20080;-53
2020/12/14 09:27:25;;;;;;;5.95;3.83;;;17.60;81.60;;;;;;5044895;28;20092;-54
2020/12/14 09:29:55;;;;;;;5.00;3.28;;;17.30;83.30;;;;;;5034824;28;20495;-50
2020/12/14 09:32:24;;;;;;;6.00;3.20;;;17.00;84.60;;;;;;5027458;28;20046;-53
2020/12/14 09:34:55;;;;;;;6.43;2.95;;;16.70;85.00;;;;;;5018293;28;20041;-51
2020/12/14 09:37:23;;;;;;;5.05;3.50;;;16.50;86.30;;;;;;5045467;28;20053;-51
2020/12/14 09:39:50;;;;;;;7.25;3.40;;;16.40;87.20;;;;;;5035229;28;20497;-56
2020/12/14 09:42:23;;;;;;;5.63;2.85;;;16.40;86.60;;;;;;5044096;28;20503;-53
2020/12/14 09:44:51;;;;;;;4.07;2.60;;;16.50;86.20;;;;;;5034153;28;20049;-54
2020/12/14 09:47:21;;;;;;;5.35;3.10;;;16.60;86.80;;;;;;5045122;28;20056;-54
2020/12/14 09:50:00;;;;;;;11.68;4.18;;;16.70;87.60;;;;;;5020762;28;20048;-54
2020/12/14 09:52:28;;;;;;;6.57;3.33;;;16.90;87.70;;;;;;5042368;28;20065;-53
2020/12/14 09:54:56;;;;;;;9.73;2.95;;;17.10;87.20;;;;;;5034825;28;20054;-54
2020/12/14 09:57:27;;;;;;;4.20;2.85;;;17.30;86.10;;;;;;5043636;28;20045;-53
2020/12/14 10:00:00;;;;;;;4.30;3.03;;;17.10;82.40;;;;;;5034809;28;20076;-53
2020/12/14 10:02:32;;;;;;;4.05;2.30;;;17.10;82.10;;;;;;5049478;28;20045;-56
2020/12/14 10:05:11;;;;;;;5.32;3.20;;;17.20;81.80;;;;;;5036391;28;20092;-54
2020/12/14 10:07:41;;;;;;;4.85;2.78;;;17.50;82.10;;;;;;5042390;28;20057;-55
2020/12/14 10:10:09;;;;;;;6.35;3.00;;;17.40;83.10;;;;;;5037016;28;20053;-54
2020/12/14 10:12:41;;;;;;;4.25;2.97;;;17.30;84.40;;;;;;5043406;28;20419;-58
2020/12/14 10:15:12;;;;;;;6.22;2.50;;;17.10;85.20;;;;;;5003989;28;20387;-58
2020/12/14 10:17:41;;;;;;;4.70;3.08;;;16.90;90.30;;;;;;5044019;28;20402;-59
2020/12/14 10:20:12;;;;;;;5.00;3.10;;;16.90;91.00;;;;;;5034608;28;20072;-56
2020/12/14 10:22:41;;;;;;;6.07;3.10;;;16.80;90.70;;;;;;5041849;28;20056;-57
2020/12/14 10:25:09;;;;;;;7.57;3.42;;;16.70;90.10;;;;;;5035701;28;20049;-56
2020/12/14 10:27:40;;;;;;;7.50;3.35;;;16.60;89.90;;;;;;5042598;28;20057;-56
2020/12/14 10:30:18;;;;;;;6.85;3.38;;;16.50;90.40;;;;;;5002545;28;20049;-57
2020/12/14 10:32:46;;;;;;;5.85;2.92;;;16.40;90.20;;;;;;5027960;28;20503;-56
2020/12/14 10:35:22;;;;;;;9.70;2.97;;;16.30;90.50;;;;;;5035534;28;20048;-56
2020/12/14 10:37:57;;;;;;;6.15;3.50;;;16.10;90.70;;;;;;5032208;28;20056;-56
2020/12/14 10:40:27;;;;;;;6.95;3.08;;;16.00;91.10;;;;;;5032889;28;20080;-56
2020/12/14 10:42:57;;;;;;;8.32;3.65;;;15.90;91.00;;;;;;5043840;28;20056;-57
2020/12/14 10:45:31;;;;;;;9.80;3.72;;;15.80;91.40;;;;;;5043837;28;20053;-56
2020/12/14 10:48:03;;;;;;;8.50;3.45;;;15.80;91.70;;;;;;5026452;28;20053;-57
2020/12/14 10:50:32;;;;;;;7.82;3.28;;;16.00;91.60;;;;;;5020755;28;20495;-56
2020/12/14 10:53:03;;;;;;;7.85;3.15;;;16.20;91.20;;;;;;5041075;28;20077;-59
2020/12/14 10:55:38;;;;;;;5.70;2.70;;;16.50;90.70;;;;;;4988923;28;20081;-57
2020/12/14 10:58:07;;;;;;;4.88;3.53;;;16.80;89.20;;;;;;5043572;28;20049;-57
2020/12/14 11:00:38;;;;;;;6.53;3.25;;;17.00;88.90;;;;;;5029817;28;20060;-57
2020/12/14 11:03:08;;;;;;;7.97;3.88;;;17.20;88.70;;;;;;5042184;28;20053;-57
2020/12/14 11:05:39;;;;;;;7.25;2.70;;;17.30;87.90;;;;;;5034936;28;20042;-58
2020/12/14 11:08:07;;;;;;;5.90;3.08;;;17.40;87.60;;;;;;5044957;28;20499;-58
2020/12/14 11:10:35;;;;;;;8.50;2.90;;;17.40;87.20;;;;;;5047697;28;20060;-57
2020/12/14 11:13:04;;;;;;;9.52;2.58;;;17.40;87.30;;;;;;5027583;28;20060;-59
2020/12/14 11:15:32;;;;;;;8.30;3.25;;;17.40;86.50;;;;;;5048575;28;20049;-55
2020/12/14 11:18:00;;;;;;;6.60;3.22;;;17.30;86.90;;;;;;5024487;28;20045;-57
2020/12/14 11:20:35;;;;;;;9.13;3.20;;;17.30;87.60;;;;;;5034778;28;20054;-57
2020/12/14 11:23:08;;;;;;;6.32;2.90;;;17.30;87.30;;;;;;5043649;28;20048;-56
2020/12/14 11:25:37;;;;;;;3.33;2.05;;;17.50;86.20;;;;;;5048422;28;20061;-56
2020/12/14 11:28:05;;;;;;;5.05;2.95;;;17.40;85.50;;;;;;5023717;28;20148;-56
2020/12/14 11:30:33;;;;;;;6.57;2.80;;;17.40;85.70;;;;;;5034449;28;20052;-55
2020/12/14 11:33:04;;;;;;;5.53;3.20;;;17.40;86.10;;;;;;5015372;28;20080;-57
2020/12/14 11:35:35;;;;;;;7.18;3.22;;;17.50;86.80;;;;;;5018301;28;20501;-55
2020/12/14 11:38:08;;;;;;;6.72;3.00;;;17.50;85.30;;;;;;5027935;28;20080;-56
2020/12/14 11:40:38;;;;;;;7.28;4.25;;;17.40;86.10;;;;;;5048460;28;20147;-57
2020/12/14 11:43:06;;;;;;;6.38;4.30;;;17.10;86.00;;;;;;5039670;28;20072;-57
2020/12/14 11:45:45;;;;;;;6.55;3.22;;;16.80;83.20;;;;;;5021133;28;20054;-58
2020/12/14 11:48:16;;;;;;;7.38;3.67;;;16.50;81.30;;;;;;5039042;28;20061;-56
2020/12/14 11:50:44;;;;;;;5.13;3.72;;;16.60;81.90;;;;;;5019040;28;20057;-56
2020/12/14 11:53:12;;;;;;;6.15;3.80;;;16.60;80.80;;;;;;5040855;28;20061;-59
2020/12/14 11:55:45;;;;;;;3.97;2.50;;;16.80;80.90;;;;;;5037759;28;20045;-57
2020/12/14 11:58:18;;;;;;;5.97;3.35;;;16.80;79.70;;;;;;5037540;28;20053;-59
2020/12/14 12:00:49;;;;;;;5.25;2.65;;;17.00;79.10;;;;;;5026219;28;20042;-58
2020/12/14 12:03:17;;;;;;;5.63;2.45;;;16.90;77.90;;;;;;5026500;28;20459;-57
2020/12/14 12:05:47;;;;;;;4.03;2.72;;;16.90;77.50;;;;;;5037568;28;20049;-58
2020/12/14 12:08:18;;;;;;;6.07;3.15;;;16.80;79.10;;;;;;5043507;28;20095;-58
2020/12/14 12:10:51;;;;;;;4.60;3.05;;;16.70;80.40;;;;;;5042671;28;20053;-57
2020/12/14 12:13:20;;;;;;;5.95;3.45;;;16.60;81.30;;;;;;5038048;28;20068;-57
2020/12/14 12:15:53;;;;;;;4.85;3.25;;;16.30;83.10;;;;;;5040006;28;20045;-57
2020/12/14 12:18:20;;;;;;;8.88;4.07;;;16.10;84.80;;;;;;5035496;28;20096;-56
2020/12/14 12:20:53;;;;;;;5.07;2.55;;;16.00;86.40;;;;;;5040566;28;20140;-56
2020/12/14 12:23:23;;;;;;;6.38;3.17;;;15.90;87.40;;;;;;5035713;28;20069;-54
2020/12/14 12:25:56;;;;;;;5.55;3.08;;;15.80;88.00;;;;;;5030347;28;20487;-51
2020/12/14 12:28:24;;;;;;;7.40;3.47;;;15.80;88.60;;;;;;5041113;28;20050;-54
2020/12/14 12:30:54;;;;;;;3.83;2.60;;;16.00;89.90;;;;;;5045465;28;20057;-53
2020/12/14 12:33:23;;;;;;;4.63;2.70;;;16.00;88.30;;;;;;5043095;28;20049;-55
2020/12/14 12:35:50;;;;;;;5.75;3.35;;;16.20;87.60;;;;;;5029628;28;20052;-54
2020/12/14 12:38:21;;;;;;;5.32;3.28;;;16.20;87.20;;;;;;5042099;28;20495;-53
2020/12/14 12:40:48;;;;;;;5.80;3.10;;;16.10;86.60;;;;;;5039907;28;20110;-50
2020/12/14 12:43:19;;;;;;;8.05;3.55;;;16.00;86.20;;;;;;5026102;28;20080;-53
2020/12/14 12:45:47;;;;;;;5.07;2.83;;;15.90;85.90;;;;;;5040287;28;20049;-53
2020/12/14 12:48:14;;;;;;;5.22;3.13;;;15.90;85.60;;;;;;5045447;28;20053;-53
2020/12/14 12:50:55;;;;;;;5.10;2.83;;;16.00;85.80;;;;;;5036638;28;20054;-51
2020/12/14 12:53:26;;;;;;;3.67;2.95;;;16.00;85.90;;;;;;5052405;28;20055;-55
2020/12/14 12:55:54;;;;;;;4.78;2.97;;;16.00;85.80;;;;;;5030897;28;20506;-56
2020/12/14 12:58:27;;;;;;;5.07;2.50;;;16.00;85.70;;;;;;5046378;28;20041;-53
2020/12/14 13:01:02;;;;;;;4.47;3.20;;;16.10;85.80;;;;;;5023579;28;20099;-54
2020/12/14 13:03:33;;;;;;;5.88;3.40;;;16.10;85.60;;;;;;5024427;28;20045;-54